NCAR-RAP Real-Time Weather Data

Output produced by METARs form (26 May 2022  08:42 UTC)
found at http://weather.rap.ucar.edu/surface/
 
KOKC 260752Z 29011G20KT 10SM OVC018 12/11 A2981 RMK AO2 SLP091 T01220106
KOKC 260652Z 28008KT 10SM BKN015 BKN022 12/11 A2981 RMK AO2 SLP091 T01170111
KOKC 260623Z 29011KT 10SM BKN013 OVC024 12/11 A2982 RMK AO2 T01220111
KOKC 260608Z 28008KT 10SM BKN015 BKN020 OVC028 12/11 A2981 RMK AO2 T01170111
KOKC 260552Z 28010KT 9SM FEW010 BKN014 OVC030 12/11 A2981 RMK AO2 RAB03E20 SLP091 P0000 60002 T01170111 10122 20117 401500111 58001
KOKC 260452Z 26006KT 10SM BKN022 OVC038 12/11 A2982 RMK AO2 SLP095 T01170111
KOKC 260352Z 28009KT 10SM OVC018 12/11 A2982 RMK AO2 SLP095 T01170106
KOKC 260252Z 28009KT 10SM SCT014 BKN022 OVC034 12/11 A2982 RMK AO2 RAE12 SLP093 P0000 60002 T01170106 51010
KOKC 260226Z 30011G18KT 10SM BKN012 BKN017 OVC023 12/11 A2981 RMK AO2 RAE12 P0000 T01170111
KOKC 260152Z 29008KT 10SM -RA SCT012 BKN022 OVC029 12/11 A2981 RMK AO2 RAE17B39 SLP090 P0001 T01170111
KOKC 260141Z 30012KT 10SM -RA SCT012 BKN022 OVC032 12/11 A2980 RMK AO2 RAE17B39 P0001 T01170106
KOKC 260052Z 30009KT 10SM -RA BKN012 BKN021 OVC065 12/11 A2979 RMK AO2 SLP086 P0001 T01170111
KOKC 260021Z 30013G19KT 10SM -RA BKN013 BKN020 OVC031 12/11 A2979 RMK AO2 P0000 T01220111
KOKC 260015Z 30012KT 10SM -RA SCT013 BKN018 OVC031 12/11 A2978 RMK AO2 P0000 T01220111
KOKC 252358Z 31012KT 10SM -RA BKN013 BKN021 OVC030 12/11 A2978 RMK AO2 P0000 T01220111
KOKC 252352Z 31011KT 10SM -RA SCT013 BKN020 OVC028 12/11 A2978 RMK AO2 SLP082 P0002 60009 T01220111 10133 20122 53003
KOKC 252252Z 30013KT 10SM -RA SCT014 BKN024 OVC070 13/12 A2978 RMK AO2 SLP079 P0002 T01280117
KOKC 252238Z 29012KT 10SM -RA FEW013 BKN019 OVC060 13/11 A2978 RMK AO2 P0002 T01280111
KOKC 252214Z 29013KT 10SM -RA FEW014 BKN032 OVC070 13/12 A2977 RMK AO2 P0001 T01330117
KOKC 252209Z 29008KT 10SM -RA FEW014 SCT023 OVC032 13/11 A2977 RMK AO2 P0001 T01280111
KOKC 252152Z 29011KT 10SM -RA FEW014 BKN029 OVC037 13/12 A2977 RMK AO2 SLP077 P0001 T01280117
KOKC 252052Z 29011KT 10SM -RA SCT014 BKN023 OVC040 13/12 A2977 RMK AO2 SLP078 P0002 60004 T01280117 56005
KOKC 252004Z 27009KT 10SM -RA SCT012 BKN026 OVC031 13/11 A2978 RMK AO2 P0001 T01280111
KOKC 251952Z 28013G18KT 10SM -RA BKN014 OVC025 13/12 A2978 RMK AO2 RAB04 SLP078 P0002 T01280117
KOKC 251931Z 28009KT 9SM -RA BKN014 BKN020 OVC024 13/11 A2978 RMK AO2 RAB04 P0001 T01280111
KOKC 251852Z 28013KT 10SM SCT015 OVC024 13/11 A2978 RMK AO2 SLP080 T01280111
KOKC 251752Z 29011KT 10SM SCT014 OVC023 13/11 A2979 RMK AO2 SLP082 60026 T01280106 10128 20111 52005
KOKC 251652Z 28008KT 10SM BKN011 BKN018 OVC025 13/11 A2979 RMK AO2 RAE24 SLP081 P0001 T01280111
KOKC 251625Z 28010KT 10SM FEW009 BKN014 OVC026 12/11 A2978 RMK AO2 RAE24 P0001 T01220111
KOKC 251613Z 28012KT 10SM -RA SCT012 BKN017 OVC075 12/11 A2978 RMK AO2 P0001 T01220111
KOKC 251557Z 30009KT 10SM -RA BKN011 BKN026 OVC080 12/11 A2978 RMK AO2 P0000 T01170106
KOKC 251552Z 30011KT 10SM -RA SCT011 OVC080 12/11 A2978 RMK AO2 RAE04B28 SLP078 P0000 T01170106
KOKC 251517Z 32013KT 10SM SCT012 OVC070 12/11 A2976 RMK AO2 RAE04 P0000 T01170106
KOKC 251504Z 30013KT 10SM FEW009 BKN013 OVC070 12/11 A2977 RMK AO2 RAE04 P0000 T01220111
KOKC 251452Z 30011KT 10SM -RA SCT010 BKN017 OVC060 12/11 A2977 RMK AO2 SLP077 P0002 60025 T01220111 53001
KOKC 251352Z 29008KT 6SM -RA BR BKN010 OVC085 11/11 A2977 RMK AO2 SLP077 P0010 T01110111
KOKC 251303Z 33016KT 5SM RA BR SCT009 SCT055 OVC070 11/11 A2975 RMK AO2 P0003 T01110106
KOKC 251252Z 32014KT 4SM RA BR BKN009 BKN050 OVC070 11/11 A2975 RMK AO2 SLP068 P0013 T01110106
KOKC 251152Z 32013KT 5SM RA BR FEW009 BKN011 BKN015 12/11 A2974 RMK AO2 SLP066 P0012 60018 70079 T01170111 10150 20117 55003
KOKC 251109Z 32009KT 5SM RA BR BKN013 BKN022 OVC050 12/11 A2974 RMK AO2 P0002 T01170111
KOKC 251052Z 33011KT 10SM -RA SCT013 BKN050 OVC070 12/11 A2972 RMK AO2 SLP059 P0002 T01170111
KOKC 250952Z 34014KT 10SM -RA FEW015 OVC041 13/12 A2973 RMK AO2 SLP060 P0004 T01280117
KOKC 250852Z 32012KT 10SM -RA BKN036 OVC049 13/11 A2975 RMK AO2 RAB40 SLP068 P0000 60000 T01330111 55009
KOKC 250752Z 35011KT 10SM FEW032 OVC043 14/12 A2971 RMK AO2 RAB04E37 SLP054 P0000 T01390117
KOKC 250652Z 34009KT 10SM FEW010 BKN032 OVC041 14/12 A2977 RMK AO2 RAB07E25 SLP073 P0000 T01440122
KOKC 250552Z 34007KT 10SM FEW017 SCT024 OVC036 15/14 A2978 RMK AO2 SLP077 60000 T01500139 10161 20150 401780139 50003
KOKC 250452Z 34007KT 10SM FEW015 OVC036 16/13 A2980 RMK AO2 SLP085 T01610133
KOKC 250352Z VRB03KT 10SM FEW013 SCT018 OVC032 16/16 A2981 RMK AO2 SLP087 T01560156
KOKC 250316Z 27003KT 10SM FEW014 BKN029 OVC036 16/16 A2978 RMK AO2 T01560156
KOKC 250252Z 00000KT 10SM SCT026 BKN031 OVC046 16/16 A2977 RMK AO2 SLP074 60000 T01560156 53004
KOKC 250152Z 20003KT 10SM BKN026 BKN040 OVC150 16/16 A2977 RMK AO2 SLP073 T01560156
KOKC 250052Z 00000KT 10SM SCT036 SCT110 OVC150 16/16 A2973 RMK AO2 RAE03 SLP058 P0000 T01610156
KOKC 242352Z 25006KT 10SM -RA BKN035 OVC110 16/16 A2976 RMK AO2 RAB13 SLP069 P0001 60001 T01610156 10178 20161 58001
KOKC 242259Z 24008KT 10SM OVC030 17/14 A2977 RMK AO2 T01720144
KOKC 242252Z 24008KT 10SM BKN028 OVC033 17/14 A2977 RMK AO2 SLP073 T01720144
KOKC 242229Z 26008KT 10SM FEW012 BKN028 OVC033 17/14 A2977 RMK AO2 T01720144
KOKC 242206Z 25008KT 10SM FEW010 SCT026 OVC031 18/14 A2977 RMK AO2 T01780144
KOKC 242152Z 25011KT 10SM FEW009 BKN025 OVC031 18/15 A2977 RMK AO2 SLP073 T01780150
KOKC 242052Z 25011KT 10SM FEW005 SCT015 OVC021 17/15 A2976 RMK AO2 SLP069 60000 T01720150 58001
KOKC 242001Z 24012KT 10SM OVC012 17/16 A2976 RMK AO2 T01720156
KOKC 241952Z 25010KT 10SM SCT010 BKN019 OVC130 17/16 A2975 RMK AO2 SLP067 T01720156
KOKC 241930Z 25010KT 10SM FEW007 SCT010 OVC017 17/16 A2975 RMK AO2 T01670156
KOKC 241922Z 25010KT 10SM BKN011 OVC017 17/16 A2976 RMK AO2 T01670156
KOKC 241859Z 25008G16KT 10SM BKN009 BKN015 BKN110 17/16 A2976 RMK AO2 T01670156
KOKC 241852Z 25011KT 10SM SCT009 BKN013 BKN110 17/16 A2977 RMK AO2 RAB05E35 SLP076 P0000 T01670156
KOKC 241840Z 16009KT 10SM SCT009 SCT050 BKN110 17/16 A2974 RMK AO2 RAB05E35 P0000 T01670156
KOKC 241831Z 16009KT 10SM -RA BKN011 BKN050 OVC100 17/16 A2973 RMK AO2 RAB05 P0000 T01670156
KOKC 241811Z 19014KT 10SM -RA SCT009 SCT049 BKN100 17/16 A2977 RMK AO2 RAB05 P0000 T01670156
KOKC 241752Z 18015G19KT 10SM BKN010 OVC130 17/16 A2976 RMK AO2 RAE01B29E41 SLP072 P0000 60060 T01670156 10172 20139 50007
KOKC 241733Z 20009KT 10SM -RA BKN013 OVC110 17/16 A2979 RMK AO2 RAE01B29 P0000 T01670161
KOKC 241652Z 20010KT 10SM -RA SCT008 BKN075 BKN110 OVC150 16/16 A2976 RMK AO2 RAB49 SLP072 P0000 T01610156
KOKC 241552Z 16006KT 10SM FEW005 SCT045 BKN090 OVC130 16/16 A2975 RMK AO2 RAE42 SLP068 P0007 T01610156
KOKC 241452Z 12015KT 4SM RA BR SCT010CB BKN080 OVC100 15/15 A2974 RMK AO2 SLP065 CB OHD-ALQDS MOV E P0014 60053 T01500150 58019
KOKC 241352Z 33009KT 5SM -RA BR SCT007CB BKN070 OVC090 14/14 A2980 RMK AO2 PK WND 21026/1318 WSHFT 1307 LTG DSNT N RAB16 SLP087 CB OHD-ALQDS MOV E P0028 T01440144
KOKC 241339Z 30010G17KT 3SM RA BR BKN007CB BKN012 OVC021 14/14 A2980 RMK AO2 PK WND 21026/1318 WSHFT 1307 LTG DSNT N RAB16 CB OHD-ALQDS MOV E P0026 T01440144
KOKC 241325Z 21012G26KT 1SM R35R/2600VP6000FT RA BR BKN007CB OVC012 17/17 A2980 RMK AO2 PK WND 21026/1318 WSHFT 1307 LTG DSNT N RAB16 PRESRR CB SW-NW MOV E P0021 T01670167
KOKC 241321Z 20014G26KT 1/2SM R35R/2600VP6000FT +RA BR BKN007CB OVC012 17/17 A2980 RMK AO2 PK WND 21026/1318 WSHFT 1307 LTG DSNT N RAB16 PRESRR CB SW-NW MOV E P0011 T01670167
KOKC 241318Z 21020G26KT 1SM R35R/4000VP6000FT RA BR SCT005CB OVC009 17/17 A2980 RMK AO2 PK WND 21026/1318 RAB16 PRESRR CB SW-NW MOV E P0000 T01720167
KOKC 241252Z 14018G26KT 5SM BR OVC007 17/17 A2976 RMK AO2 PK WND 14026/1249 LTG DSNT NW RAE40 TSE49 SLP072 P0011 T01720167
KOKC 241236Z 14016G24KT 2 1/2SM -TSRA BR OVC005CB 17/17 A2978 RMK AO2 OCNL LTGICCG OHD-ALQDS TS OHD-ALQDS MOV NE P0011 T01670167
KOKC 241210Z 15013KT 1SM R35R/P6000FT TSRA BR OVC005CB 17/17 A2979 RMK AO2 LTG DSNT NE OCNL LTGICCG OHD-ALQDS TS OHD-ALQDS MOV NE P0010 T01670167 $
KOKC 241152Z 15005KT 1SM R35R/6000VP6000FT +TSRA BR OVC004CB 16/16 A2980 RMK AO2 LTG DSNT N AND S SLP085 OCNL LTGICCG OHD-ALQDS TS OHD-ALQDS MOV NE P0066 60146 70249 T01610161 10167 20139 56014 $
KOKC 241150Z 15005KT 3/4SM R35R/6000VP6000FT +TSRA BR OVC004CB 16/16 A2980 RMK AO2 TWR VIS 3 LTG DSNT N OCNL LTGICCG OHD-ALQDS TS OHD-ALQDS MOV NE P0058 $
KOKC 241135Z 00000KT 2SM +TSRA BR BKN004 BKN013 OVC022CB 16/16 A2980 RMK AO2 TWR VIS 3 LTG DSNT N AND NE AND S FRQ LTGICCG OHD-ALQDS TS OHD-ALQDS MOV NE P0037 T01610161 $
KOKC 241102Z 12008KT 2 1/2SM +TSRA BR FEW022 BKN027CB OVC050 17/16 A2980 RMK AO2 LTG DSNT ALQDS FRQ LTGICCG OHD-ALQDS TS OHD-ALQDS MOV NE P0004 T01670161 $
KOKC 241100Z 13009KT 3SM +TSRA BR FEW007 BKN030CB OVC041 17/16 A2980 RMK AO2 LTG DSNT ALQDS FRQ LTGICCG OHD-ALQDS TS OHD-ALQDS MOV NE P0001 T01670161 $
KOKC 241052Z 11012KT 1 1/2SM TSRA BR FEW004 BKN030CB OVC060 17/16 A2980 RMK AO2 LTG DSNT ALQDS SLP085 FRQ LTGICCG OHD-ALQDS TS OHD-ALQDS MOV NE P0065 T01670161 $
KOKC 241049Z 09014KT 1 1/2SM +TSRA BR FEW004 BKN030CB OVC060 17/16 A2980 RMK AO2 LTG DSNT ALQDS FRQ LTGICCG OHD-ALQDS TS OHD-ALQDS MOV NE P0064 $
KOKC 241042Z 11014KT 1SM R35R/5000VP6000FT +TSRA BR FEW004 OVC028CB 17/16 A2980 RMK AO2 LTG DSNT ALQDS FRQ LTGICCG OHD-ALQDS TS OHD-ALQDS MOV NE P0052 T01670161 $
KOKC 241021Z 13010KT 2SM R35R/6000VP6000FT +TSRA BR BKN007 BKN011 OVC014CB 16/16 A2982 RMK AO2 LTG DSNT SW FRQ LTGICCG OHD-ALQDS TS OHD-ALQDS MOV NE P0013 T01610161 $
KOKC 240952Z 11010KT 8SM -TSRA BKN006 OVC013CB 16/16 A2982 RMK AO2 LTG DSNT S AND SW RAE00B14 TSB40 SLP091 OCNL LTGIC OHD-S TS OHD-S MOV NE P0012 T01610161 $
KOKC 240941Z 11007KT 8SM -TSRA SCT008 OVC013CB 16/16 A2983 RMK AO2 LTG DSNT S AND SW RAE00B14 TSB40 OCNL LTGIC OHD-S TS OHD-S MOV NE P0012 T01610156 $
KOKC 240934Z 10010KT 6SM RA BR FEW005 BKN010 OVC016 16/16 A2983 RMK AO2 LTG DSNT S AND SW RAE00B14 P0010 T01610156 $
KOKC 240919Z 10012KT 2SM -RA BR FEW005 BKN018 OVC025 16/16 A2983 RMK AO2 LTG DSNT S AND SW RAE00B14 P0000 T01560156 $
KOKC 240911Z 10011KT 10SM FEW007 BKN018 OVC025 16/16 A2983 RMK AO2 LTG DSNT S AND SW RAE00 P0000 T01560156 $
KOKC 240901Z 11009KT 10SM FEW005 BKN014 OVC019 16/16 A2984 RMK AO2 LTG DSNT S AND SW RAE00 P0000 T01560156 $
KOKC 240852Z 10009KT 5SM -RA BR FEW005 BKN009 OVC015 16/16 A2984 RMK AO2 LTG DSNT S RAB23 SLP099 P0003 60003 T01560156 58031 $